Time;durP1;ratioP1;P1;durP2;ratioP2;P2;SDS_P1;SDS_P2;PMS_P1;PMS_P2;Temp;Humidity;BMP_temperature;BMP_pressure;BME280_temperature;BME280_humidity;BME280_pressure;Samples;Min_cycle;Max_cycle;Signal;HPM_P1;HPM_P2
2022/01/31 00:02:07;;;;;;;0.47;0.47;;;;;;;;;;5052293;28;20040;-64
2022/01/31 00:04:33;;;;;;;0.10;0.10;;;;;;;;;;5019155;28;20032;-64
2022/01/31 00:06:58;;;;;;;0.10;0.10;;;;;;;;;;5035692;28;20102;-65
2022/01/31 00:09:25;;;;;;;0.15;0.15;;;;;;;;;;5053687;28;20017;-64
2022/01/31 00:12:01;;;;;;;0.10;0.10;;;;;;;;;;5053386;28;20118;-65
2022/01/31 00:14:38;;;;;;;0.13;0.13;;;;;;;;;;5051708;28;20124;-65
2022/01/31 00:17:04;;;;;;;0.10;0.10;;;;;;;;;;5035473;28;20102;-65
2022/01/31 00:19:30;;;;;;;2.38;2.28;;;;;;;;;;5055528;28;20107;-64
2022/01/31 00:21:55;;;;;;;0.10;0.10;;;;;;;;;;5061731;28;20128;-64
2022/01/31 00:24:21;;;;;;;0.10;0.10;;;;;;;;;;5063417;28;20040;-65
2022/01/31 00:26:46;;;;;;;0.10;0.10;;;;;;;;;;5062950;28;20033;-65
2022/01/31 00:29:12;;;;;;;0.20;0.20;;;;;;;;;;5035706;28;20033;-66
2022/01/31 00:31:37;;;;;;;0.10;0.10;;;;;;;;;;5068500;28;20037;-67
2022/01/31 00:34:03;;;;;;;0.10;0.10;;;;;;;;;;5068474;28;20021;-67
2022/01/31 00:36:28;;;;;;;0.10;0.10;;;;;;;;;;5052138;28;20507;-67
2022/01/31 00:38:54;;;;;;;2.88;2.75;;;;;;;;;;5068352;28;20087;-66
2022/01/31 00:41:20;;;;;;;0.63;0.63;;;;;;;;;;5052996;28;20507;-66
2022/01/31 00:44:28;;;;;;;0.10;0.10;;;;;;;;;;5052831;28;20041;-67
2022/01/31 00:46:56;;;;;;;0.52;0.52;;;;;;;;;;5049685;28;20111;-65
2022/01/31 00:49:49;;;;;;;0.10;0.10;;;;;;;;;;5035160;28;20041;-66
2022/01/31 00:52:12;;;;;;;0.20;0.20;;;;;;;;;;5034773;28;20033;-65
2022/01/31 00:54:40;;;;;;;0.63;0.63;;;;;;;;;;5051248;28;20037;-65
2022/01/31 00:57:06;;;;;;;0.10;0.10;;;;;;;;;;5081838;28;20051;-64
2022/01/31 00:59:31;;;;;;;0.20;0.20;;;;;;;;;;5072820;28;20063;-65
2022/01/31 01:01:57;;;;;;;0.93;0.93;;;;;;;;;;5054722;28;20099;-64
2022/01/31 01:04:22;;;;;;;7.18;6.75;;;;;;;;;;5072592;28;20387;-65
2022/01/31 01:06:48;;;;;;;0.63;0.63;;;;;;;;;;5072353;28;20078;-66
2022/01/31 01:09:13;;;;;;;0.10;0.10;;;;;;;;;;5038028;28;20033;-65
2022/01/31 01:11:39;;;;;;;0.10;0.10;;;;;;;;;;5054676;28;20036;-64
2022/01/31 01:14:04;;;;;;;0.10;0.10;;;;;;;;;;5055002;28;20024;-65
2022/01/31 01:16:30;;;;;;;0.10;0.10;;;;;;;;;;5072428;28;20055;-64
2022/01/31 01:18:57;;;;;;;0.10;0.10;;;;;;;;;;5037904;28;20044;-65
2022/01/31 01:21:22;;;;;;;0.10;0.10;;;;;;;;;;5054317;28;20032;-65
2022/01/31 01:23:48;;;;;;;0.20;0.20;;;;;;;;;;5072371;28;20489;-65
2022/01/31 01:26:13;;;;;;;0.10;0.10;;;;;;;;;;5072209;28;20033;-64
2022/01/31 01:28:39;;;;;;;0.10;0.10;;;;;;;;;;5054340;28;20368;-65
2022/01/31 01:31:05;;;;;;;0.10;0.10;;;;;;;;;;5072431;28;20043;-64
2022/01/31 01:33:39;;;;;;;0.10;0.10;;;;;;;;;;5054392;28;20505;-64
2022/01/31 01:36:06;;;;;;;0.10;0.10;;;;;;;;;;5072048;28;20037;-65
2022/01/31 01:38:31;;;;;;;0.20;0.20;;;;;;;;;;5037962;28;20048;-64
2022/01/31 01:40:59;;;;;;;0.10;0.10;;;;;;;;;;5053311;28;20036;-64
2022/01/31 01:43:26;;;;;;;0.10;0.10;;;;;;;;;;5054009;28;20043;-64
2022/01/31 01:45:55;;;;;;;0.13;0.13;;;;;;;;;;5072515;28;20032;-63
2022/01/31 01:48:23;;;;;;;0.43;0.43;;;;;;;;;;5055909;28;20024;-63
2022/01/31 01:50:51;;;;;;;0.20;0.20;;;;;;;;;;5041074;28;20611;-64
2022/01/31 01:53:18;;;;;;;0.82;0.82;;;;;;;;;;5057544;28;20064;-63
2022/01/31 01:55:47;;;;;;;0.20;0.20;;;;;;;;;;5057633;28;20424;-63
2022/01/31 01:58:16;;;;;;;0.70;0.70;;;;;;;;;;5041652;28;20098;-64
2022/01/31 02:00:50;;;;;;;0.10;0.10;;;;;;;;;;5057828;28;20028;-64
2022/01/31 02:03:17;;;;;;;0.10;0.10;;;;;;;;;;5041048;28;20135;-64
2022/01/31 02:05:43;;;;;;;0.25;0.25;;;;;;;;;;5057627;28;20029;-63
2022/01/31 02:08:11;;;;;;;0.10;0.10;;;;;;;;;;5040911;28;20049;-64
2022/01/31 02:10:36;;;;;;;0.10;0.10;;;;;;;;;;5075403;28;20033;-63
2022/01/31 02:13:10;;;;;;;0.10;0.10;;;;;;;;;;5057568;28;20398;-64
2022/01/31 02:15:54;;;;;;;0.10;0.10;;;;;;;;;;5060027;28;20410;-64
2022/01/31 02:18:47;;;;;;;0.20;0.20;;;;;;;;;;5060492;28;20101;-64
2022/01/31 02:21:21;;;;;;;0.10;0.10;;;;;;;;;;5057353;28;20540;-63
2022/01/31 02:23:47;;;;;;;0.10;0.10;;;;;;;;;;5040676;28;20040;-63
2022/01/31 02:26:33;;;;;;;0.10;0.10;;;;;;;;;;5074729;28;20040;-63
2022/01/31 02:29:08;;;;;;;0.10;0.10;;;;;;;;;;5041486;28;20028;-63
2022/01/31 02:31:34;;;;;;;2.95;2.85;;;;;;;;;;5040462;28;20035;-63
2022/01/31 02:34:00;;;;;;;4.78;4.45;;;;;;;;;;5040291;28;20086;-63
2022/01/31 02:36:26;;;;;;;0.10;0.10;;;;;;;;;;5056998;28;20079;-64
2022/01/31 02:38:51;;;;;;;0.10;0.10;;;;;;;;;;5056993;28;20071;-63
2022/01/31 02:41:17;;;;;;;0.47;0.47;;;;;;;;;;5057010;28;20025;-65
2022/01/31 02:43:48;;;;;;;0.10;0.10;;;;;;;;;;5057036;28;20033;-65
2022/01/31 02:46:17;;;;;;;0.10;0.10;;;;;;;;;;5057156;28;20032;-64
2022/01/31 02:48:51;;;;;;;0.30;0.30;;;;;;;;;;5056905;28;20055;-64
2022/01/31 02:51:21;;;;;;;0.10;0.10;;;;;;;;;;5056527;28;20028;-65
2022/01/31 02:53:48;;;;;;;0.10;0.10;;;;;;;;;;5040286;28;20391;-64
2022/01/31 02:56:13;;;;;;;0.10;0.10;;;;;;;;;;5039874;28;20032;-64
2022/01/31 02:58:39;;;;;;;0.10;0.10;;;;;;;;;;5056461;28;20064;-65
2022/01/31 03:01:05;;;;;;;0.10;0.10;;;;;;;;;;5056035;28;20039;-63
2022/01/31 03:03:38;;;;;;;0.10;0.10;;;;;;;;;;5041344;28;20044;-63
2022/01/31 03:06:04;;;;;;;3.90;3.72;;;;;;;;;;5074339;28;20361;-64
2022/01/31 03:08:30;;;;;;;0.10;0.10;;;;;;;;;;5056557;28;20028;-64
2022/01/31 03:11:00;;;;;;;0.10;0.10;;;;;;;;;;5056433;28;20042;-64
2022/01/31 03:13:47;;;;;;;0.47;0.47;;;;;;;;;;5056402;28;20043;-64
2022/01/31 03:16:14;;;;;;;0.20;0.20;;;;;;;;;;5056268;28;20028;-64
2022/01/31 03:19:02;;;;;;;0.10;0.10;;;;;;;;;;5059537;28;20053;-64
2022/01/31 03:21:27;;;;;;;0.13;0.13;;;;;;;;;;5039861;28;20028;-64
2022/01/31 03:23:53;;;;;;;0.10;0.10;;;;;;;;;;5056521;28;20020;-63
2022/01/31 03:26:18;;;;;;;0.10;0.10;;;;;;;;;;5074223;28;20028;-64
2022/01/31 03:28:44;;;;;;;0.13;0.13;;;;;;;;;;5074048;28;20479;-64
2022/01/31 03:31:10;;;;;;;0.10;0.10;;;;;;;;;;5073871;28;20077;-65
2022/01/31 03:33:36;;;;;;;0.10;0.10;;;;;;;;;;5056287;28;20041;-64
2022/01/31 03:36:02;;;;;;;0.10;0.10;;;;;;;;;;5055863;28;20032;-66
2022/01/31 03:38:27;;;;;;;0.10;0.10;;;;;;;;;;5074019;28;20082;-66
2022/01/31 03:40:53;;;;;;;0.10;0.10;;;;;;;;;;5039299;28;20073;-66
2022/01/31 03:43:18;;;;;;;0.10;0.10;;;;;;;;;;5055948;28;20412;-66
2022/01/31 03:45:45;;;;;;;0.10;0.10;;;;;;;;;;5039169;28;20031;-66
2022/01/31 03:48:19;;;;;;;0.10;0.10;;;;;;;;;;5055772;28;20040;-66
2022/01/31 03:50:46;;;;;;;0.10;0.10;;;;;;;;;;5055962;28;20033;-66
2022/01/31 03:53:11;;;;;;;0.10;0.10;;;;;;;;;;5056037;28;20046;-66
2022/01/31 03:55:37;;;;;;;0.10;0.10;;;;;;;;;;5055959;28;20111;-67
2022/01/31 03:58:03;;;;;;;0.10;0.10;;;;;;;;;;5073719;28;20041;-66
2022/01/31 04:00:38;;;;;;;0.10;0.10;;;;;;;;;;5055755;28;20074;-66
2022/01/31 04:03:04;;;;;;;0.10;0.10;;;;;;;;;;5069230;28;20036;-67
2022/01/31 04:05:31;;;;;;;0.10;0.10;;;;;;;;;;5069087;28;20441;-66
2022/01/31 04:07:56;;;;;;;0.10;0.10;;;;;;;;;;5052293;28;20053;-63
2022/01/31 04:10:22;;;;;;;0.10;0.10;;;;;;;;;;5069838;28;20037;-64
2022/01/31 04:12:47;;;;;;;0.10;0.10;;;;;;;;;;5051328;28;20044;-64
2022/01/31 04:15:13;;;;;;;0.10;0.10;;;;;;;;;;5051711;28;20041;-64
2022/01/31 04:17:39;;;;;;;0.10;0.10;;;;;;;;;;5052002;28;20453;-65
2022/01/31 04:20:07;;;;;;;0.15;0.15;;;;;;;;;;5069747;28;20037;-64
2022/01/31 04:22:36;;;;;;;0.17;0.17;;;;;;;;;;5069597;28;20040;-65
2022/01/31 04:25:05;;;;;;;0.10;0.10;;;;;;;;;;5069618;28;20049;-64
2022/01/31 04:27:43;;;;;;;0.10;0.10;;;;;;;;;;5069373;28;20036;-65
2022/01/31 04:30:11;;;;;;;0.10;0.10;;;;;;;;;;5069510;28;20045;-64
2022/01/31 04:32:36;;;;;;;0.10;0.10;;;;;;;;;;5051290;28;20503;-64
2022/01/31 04:35:01;;;;;;;0.15;0.15;;;;;;;;;;5051686;28;20079;-65
2022/01/31 04:37:27;;;;;;;0.10;0.10;;;;;;;;;;5069300;28;20094;-64
2022/01/31 04:39:52;;;;;;;0.10;0.10;;;;;;;;;;5069432;28;20040;-65
2022/01/31 04:42:18;;;;;;;0.10;0.10;;;;;;;;;;5069326;28;20498;-65
2022/01/31 04:44:43;;;;;;;0.10;0.10;;;;;;;;;;5069170;28;20158;-65
2022/01/31 04:47:09;;;;;;;0.20;0.20;;;;;;;;;;5051522;28;20044;-66
2022/01/31 04:49:35;;;;;;;0.25;0.25;;;;;;;;;;5069430;28;20270;-65
2022/01/31 04:52:01;;;;;;;0.10;0.10;;;;;;;;;;5069257;28;20075;-65
2022/01/31 04:54:26;;;;;;;0.10;0.10;;;;;;;;;;5069144;28;20084;-64
2022/01/31 04:56:52;;;;;;;0.10;0.10;;;;;;;;;;5068517;28;20341;-64
2022/01/31 04:59:18;;;;;;;0.10;0.10;;;;;;;;;;5034685;28;20048;-64
2022/01/31 05:01:44;;;;;;;0.10;0.10;;;;;;;;;;5069049;28;20475;-63
2022/01/31 05:04:09;;;;;;;0.10;0.10;;;;;;;;;;5051125;28;20040;-64
2022/01/31 05:06:38;;;;;;;0.15;0.15;;;;;;;;;;5050838;28;20070;-64
2022/01/31 05:09:03;;;;;;;0.10;0.10;;;;;;;;;;5068873;28;20079;-65
2022/01/31 05:11:29;;;;;;;0.10;0.10;;;;;;;;;;5068596;28;20456;-65
2022/01/31 05:13:54;;;;;;;0.10;0.10;;;;;;;;;;5068860;28;20388;-65
2022/01/31 05:16:20;;;;;;;0.10;0.10;;;;;;;;;;5068555;28;20039;-65
2022/01/31 05:18:45;;;;;;;0.10;0.10;;;;;;;;;;5050717;28;20045;-64
2022/01/31 05:21:11;;;;;;;0.10;0.10;;;;;;;;;;5050998;28;20032;-64
2022/01/31 05:23:37;;;;;;;0.10;0.10;;;;;;;;;;5067721;28;20048;-68
2022/01/31 05:26:03;;;;;;;0.10;0.10;;;;;;;;;;5050344;28;20045;-65
2022/01/31 05:28:28;;;;;;;0.10;0.10;;;;;;;;;;5050972;28;20040;-64
2022/01/31 05:30:53;;;;;;;0.10;0.10;;;;;;;;;;5068266;28;20024;-64
2022/01/31 05:33:19;;;;;;;0.10;0.10;;;;;;;;;;5068312;28;20079;-67
2022/01/31 05:35:45;;;;;;;0.10;0.10;;;;;;;;;;5068337;28;20468;-67
2022/01/31 05:38:11;;;;;;;0.10;0.10;;;;;;;;;;5050761;28;20523;-66
2022/01/31 05:40:36;;;;;;;0.10;0.10;;;;;;;;;;5067495;28;20083;-67
2022/01/31 05:43:02;;;;;;;0.10;0.10;;;;;;;;;;5068795;28;20441;-65
2022/01/31 05:45:27;;;;;;;2.13;2.03;;;;;;;;;;5050442;28;20067;-64
2022/01/31 05:47:53;;;;;;;0.10;0.10;;;;;;;;;;5068472;28;20033;-65
2022/01/31 05:50:18;;;;;;;0.10;0.10;;;;;;;;;;5068316;28;20060;-64
2022/01/31 05:52:44;;;;;;;0.10;0.10;;;;;;;;;;5049805;28;20123;-65
2022/01/31 05:55:09;;;;;;;0.10;0.10;;;;;;;;;;5050544;28;20126;-65
2022/01/31 05:57:35;;;;;;;0.10;0.10;;;;;;;;;;5049930;28;20044;-64
2022/01/31 06:00:01;;;;;;;0.10;0.10;;;;;;;;;;5067534;28;20027;-64
2022/01/31 06:02:26;;;;;;;0.20;0.20;;;;;;;;;;5068050;28;20044;-67
2022/01/31 06:04:55;;;;;;;0.10;0.10;;;;;;;;;;5033651;28;20032;-66
2022/01/31 06:07:21;;;;;;;0.10;0.10;;;;;;;;;;5049574;28;20051;-66
2022/01/31 06:09:46;;;;;;;0.10;0.10;;;;;;;;;;5049260;28;20064;-66
2022/01/31 06:12:12;;;;;;;0.10;0.10;;;;;;;;;;5067709;28;20072;-65
2022/01/31 06:14:39;;;;;;;0.10;0.10;;;;;;;;;;5067453;28;20029;-66
2022/01/31 06:17:04;;;;;;;0.10;0.10;;;;;;;;;;5067531;28;20071;-65
2022/01/31 06:19:30;;;;;;;0.10;0.10;;;;;;;;;;5067170;28;20056;-65
2022/01/31 06:21:56;;;;;;;0.10;0.10;;;;;;;;;;5067890;28;20482;-65
2022/01/31 06:24:21;;;;;;;0.20;0.20;;;;;;;;;;5049885;28;20435;-66
2022/01/31 06:26:47;;;;;;;0.20;0.20;;;;;;;;;;5049611;28;20036;-65
2022/01/31 06:29:19;;;;;;;0.20;0.20;;;;;;;;;;5049722;28;20052;-67
2022/01/31 06:31:46;;;;;;;0.10;0.10;;;;;;;;;;5049996;28;20041;-66
2022/01/31 06:34:11;;;;;;;0.20;0.20;;;;;;;;;;5050262;28;20388;-66
2022/01/31 06:36:37;;;;;;;0.10;0.10;;;;;;;;;;5070808;28;20040;-66
2022/01/31 06:39:03;;;;;;;0.20;0.20;;;;;;;;;;5052809;28;20041;-66
2022/01/31 06:41:29;;;;;;;0.10;0.10;;;;;;;;;;5053027;28;20032;-65
2022/01/31 06:43:55;;;;;;;0.10;0.10;;;;;;;;;;5071319;28;20040;-65
2022/01/31 06:46:20;;;;;;;0.20;0.20;;;;;;;;;;5053132;28;20119;-65
2022/01/31 06:48:46;;;;;;;0.15;0.15;;;;;;;;;;5052982;28;20028;-65
2022/01/31 06:51:12;;;;;;;0.10;0.10;;;;;;;;;;5070942;28;20098;-65
2022/01/31 06:53:37;;;;;;;0.15;0.15;;;;;;;;;;5052647;28;20042;-66
2022/01/31 06:56:03;;;;;;;0.20;0.20;;;;;;;;;;5070807;28;20124;-65
2022/01/31 06:58:29;;;;;;;0.10;0.10;;;;;;;;;;5052881;28;20169;-64
2022/01/31 07:00:54;;;;;;;0.10;0.10;;;;;;;;;;5070445;28;20043;-64
2022/01/31 07:03:20;;;;;;;0.10;0.10;;;;;;;;;;5052854;28;20016;-64
2022/01/31 07:05:46;;;;;;;0.15;0.15;;;;;;;;;;5052993;28;20045;-64
2022/01/31 07:08:12;;;;;;;0.20;0.20;;;;;;;;;;5052730;28;20024;-64
2022/01/31 07:10:38;;;;;;;0.20;0.20;;;;;;;;;;5051925;28;20032;-64
2022/01/31 07:13:12;;;;;;;0.10;0.10;;;;;;;;;;5052586;28;20040;-65
2022/01/31 07:15:38;;;;;;;0.10;0.10;;;;;;;;;;5052451;28;20127;-65
2022/01/31 07:18:03;;;;;;;0.20;0.20;;;;;;;;;;5052412;28;20115;-65
2022/01/31 07:20:41;;;;;;;0.10;0.10;;;;;;;;;;5070288;28;20036;-65
2022/01/31 07:25:55;;;;;;;0.20;0.20;;;;;;;;;;5041948;28;20040;-65
2022/01/31 07:28:21;;;;;;;0.20;0.20;;;;;;;;;;5070302;28;20043;-65
2022/01/31 07:30:48;;;;;;;0.10;0.10;;;;;;;;;;5069862;28;20037;-66
2022/01/31 07:33:14;;;;;;;0.40;0.40;;;;;;;;;;5035819;28;20025;-65
2022/01/31 07:35:40;;;;;;;0.20;0.20;;;;;;;;;;5070437;28;20973;-66
2022/01/31 07:38:05;;;;;;;0.20;0.20;;;;;;;;;;5052399;28;20024;-66
2022/01/31 07:40:31;;;;;;;0.20;0.20;;;;;;;;;;5070125;28;20487;-64
2022/01/31 07:42:59;;;;;;;0.17;0.17;;;;;;;;;;5070021;28;20035;-64
2022/01/31 07:45:24;;;;;;;0.20;0.20;;;;;;;;;;5051717;28;20484;-64
2022/01/31 07:47:50;;;;;;;0.20;0.20;;;;;;;;;;5052217;28;20021;-63
2022/01/31 07:50:16;;;;;;;0.20;0.20;;;;;;;;;;5069915;28;20395;-66
2022/01/31 07:52:41;;;;;;;0.15;0.15;;;;;;;;;;5052203;28;20383;-65
2022/01/31 07:55:08;;;;;;;0.30;0.30;;;;;;;;;;5068621;28;20040;-65
2022/01/31 07:57:34;;;;;;;0.20;0.20;;;;;;;;;;5069752;28;20025;-65
2022/01/31 08:00:00;;;;;;;0.20;0.20;;;;;;;;;;5051697;28;20033;-66
2022/01/31 08:02:26;;;;;;;0.20;0.20;;;;;;;;;;5069930;28;20032;-65
2022/01/31 08:04:54;;;;;;;0.20;0.20;;;;;;;;;;5069822;28;20028;-66
2022/01/31 08:07:20;;;;;;;0.20;0.20;;;;;;;;;;5070141;28;20447;-65
2022/01/31 08:09:46;;;;;;;0.20;0.20;;;;;;;;;;5029777;28;20044;-65
2022/01/31 08:12:11;;;;;;;0.20;0.20;;;;;;;;;;5059293;28;20036;-66
2022/01/31 08:14:37;;;;;;;0.20;0.20;;;;;;;;;;5058867;28;20029;-66
2022/01/31 08:17:03;;;;;;;0.52;0.52;;;;;;;;;;5059137;28;20065;-65
2022/01/31 08:19:28;;;;;;;0.20;0.20;;;;;;;;;;5047675;28;20033;-65
2022/01/31 08:21:55;;;;;;;0.20;0.20;;;;;;;;;;5059060;28;20035;-65
2022/01/31 08:24:20;;;;;;;0.30;0.30;;;;;;;;;;5066556;28;20104;-66
2022/01/31 08:26:46;;;;;;;0.20;0.20;;;;;;;;;;5058218;28;20124;-64
2022/01/31 08:29:21;;;;;;;0.20;0.20;;;;;;;;;;5048952;28;20075;-65
2022/01/31 08:31:48;;;;;;;0.20;0.20;;;;;;;;;;5059322;28;20446;-66
2022/01/31 08:36:42;;;;;;;0.20;0.20;;;;;;;;;;5049837;28;20217;-65
2022/01/31 08:39:12;;;;;;;0.40;0.40;;;;;;;;;;5058178;28;20074;-65
2022/01/31 08:41:41;;;;;;;0.20;0.20;;;;;;;;;;5050292;28;20127;-65
2022/01/31 08:44:07;;;;;;;0.20;0.20;;;;;;;;;;5061180;28;20024;-66
2022/01/31 08:46:33;;;;;;;0.20;0.20;;;;;;;;;;5065548;28;20047;-66
2022/01/31 08:48:59;;;;;;;0.63;0.63;;;;;;;;;;5061682;28;20016;-66
2022/01/31 08:51:25;;;;;;;0.22;0.22;;;;;;;;;;5060507;28;20038;-66
2022/01/31 08:53:51;;;;;;;0.20;0.20;;;;;;;;;;5050615;28;20484;-65
2022/01/31 08:56:18;;;;;;;0.20;0.20;;;;;;;;;;5068688;28;20033;-65
2022/01/31 08:58:47;;;;;;;0.20;0.20;;;;;;;;;;5049762;28;20499;-65
2022/01/31 09:01:17;;;;;;;0.90;0.83;;;;;;;;;;5068849;28;20036;-64
2022/01/31 09:06:17;;;;;;;0.77;0.77;;;;;;;;;;5069209;28;20107;-64
2022/01/31 09:08:43;;;;;;;0.57;0.57;;;;;;;;;;5050642;28;20495;-66
2022/01/31 09:11:09;;;;;;;0.95;0.95;;;;;;;;;;5068685;28;20028;-65
2022/01/31 09:13:34;;;;;;;1.85;1.50;;;;;;;;;;5050803;28;20040;-65
2022/01/31 09:16:01;;;;;;;0.30;0.30;;;;;;;;;;5068072;28;20037;-64
2022/01/31 09:18:28;;;;;;;0.28;0.28;;;;;;;;;;5068420;28;20048;-65
2022/01/31 09:20:54;;;;;;;0.20;0.20;;;;;;;;;;5050424;28;20442;-65
2022/01/31 09:23:19;;;;;;;0.20;0.20;;;;;;;;;;5050507;28;20024;-65
2022/01/31 09:25:46;;;;;;;0.10;0.10;;;;;;;;;;5068678;28;20107;-64
2022/01/31 09:28:12;;;;;;;0.20;0.20;;;;;;;;;;5050695;28;20036;-65
2022/01/31 09:30:38;;;;;;;0.20;0.20;;;;;;;;;;5068051;28;20047;-65
2022/01/31 09:33:04;;;;;;;0.20;0.20;;;;;;;;;;5050986;28;20035;-64
2022/01/31 09:35:29;;;;;;;0.20;0.20;;;;;;;;;;5068265;28;20100;-65
2022/01/31 09:37:54;;;;;;;0.40;0.40;;;;;;;;;;5068438;28;20036;-64
2022/01/31 09:40:22;;;;;;;0.20;0.20;;;;;;;;;;5068502;28;20048;-65
2022/01/31 09:43:58;;;;;;;0.20;0.20;;;;;;;;;;5064007;28;20483;-66
2022/01/31 09:46:03;;;;;;;0.20;0.20;;;;;;;;;;5036655;28;20468;-65
2022/01/31 09:48:33;;;;;;;0.20;0.20;;;;;;;;;;5050128;28;20036;-63
2022/01/31 09:50:59;;;;;;;0.70;0.70;;;;;;;;;;5051002;28;20055;-64
2022/01/31 09:53:24;;;;;;;0.20;0.20;;;;;;;;;;5068065;28;20028;-71
2022/01/31 09:55:52;;;;;;;0.30;0.30;;;;;;;;;;5049242;28;20209;-71
2022/01/31 09:58:18;;;;;;;0.20;0.20;;;;;;;;;;5050199;28;20021;-69
2022/01/31 10:00:43;;;;;;;0.57;0.57;;;;;;;;;;5067974;28;20094;-69
2022/01/31 10:03:10;;;;;;;0.30;0.30;;;;;;;;;;5067905;28;20039;-70
2022/01/31 10:05:36;;;;;;;1.70;1.60;;;;;;;;;;5067570;28;20112;-71
2022/01/31 10:08:09;;;;;;;0.30;0.30;;;;;;;;;;5068035;28;20032;-70
2022/01/31 10:10:39;;;;;;;0.70;0.70;;;;;;;;;;5069539;28;20395;-68
2022/01/31 10:19:08;;;;;;;0.30;0.30;;;;;;;;;;5070614;28;20093;-68
2022/01/31 10:21:53;;;;;;;0.28;0.28;;;;;;;;;;5071403;28;20257;-71
2022/01/31 10:24:19;;;;;;;1.23;1.23;;;;;;;;;;5070597;28;20032;-69
2022/01/31 10:26:44;;;;;;;0.20;0.20;;;;;;;;;;5052545;28;20034;-70
2022/01/31 10:29:14;;;;;;;0.22;0.22;;;;;;;;;;5068560;28;20043;-70
2022/01/31 10:31:53;;;;;;;3.28;3.10;;;;;;;;;;5071104;28;20040;-70
2022/01/31 10:34:21;;;;;;;1.20;1.20;;;;;;;;;;5070807;28;20114;-70
2022/01/31 10:36:46;;;;;;;0.28;0.28;;;;;;;;;;5070602;28;20047;-69
2022/01/31 10:43:23;;;;;;;0.20;0.20;;;;;;;;;;5070602;28;20414;-71
2022/01/31 10:54:09;;;;;;;0.20;0.20;;;;;;;;;;5070396;28;20032;-71
2022/01/31 10:56:54;;;;;;;0.20;0.20;;;;;;;;;;5051668;28;20390;-73
2022/01/31 10:59:22;;;;;;;0.20;0.20;;;;;;;;;;5070580;28;20415;-70
2022/01/31 11:01:50;;;;;;;0.82;0.82;;;;;;;;;;5064345;28;20321;-70
2022/01/31 11:04:16;;;;;;;0.75;0.75;;;;;;;;;;5068473;28;20031;-71
2022/01/31 11:06:42;;;;;;;13.07;1.08;;;;;;;;;;5067839;28;20032;-70
2022/01/31 11:09:12;;;;;;;0.30;0.30;;;;;;;;;;5067762;28;20040;-70
2022/01/31 11:11:39;;;;;;;0.40;0.40;;;;;;;;;;5051958;28;20436;-72
2022/01/31 11:14:08;;;;;;;0.30;0.30;;;;;;;;;;5060795;28;20024;-70
2022/01/31 11:16:34;;;;;;;0.20;0.20;;;;;;;;;;5048314;28;20037;-70
2022/01/31 11:19:02;;;;;;;0.20;0.20;;;;;;;;;;5066880;28;20063;-71
2022/01/31 11:21:30;;;;;;;0.70;0.70;;;;;;;;;;5066023;28;20461;-70
2022/01/31 11:24:01;;;;;;;0.30;0.30;;;;;;;;;;5048949;28;20162;-71
2022/01/31 11:26:27;;;;;;;0.30;0.30;;;;;;;;;;5067295;28;20363;-69
2022/01/31 11:28:54;;;;;;;0.20;0.20;;;;;;;;;;5067217;28;20103;-71
2022/01/31 11:31:19;;;;;;;0.45;0.45;;;;;;;;;;5067725;28;20078;-70
2022/01/31 11:33:45;;;;;;;0.57;0.57;;;;;;;;;;5067450;28;20044;-71
2022/01/31 11:36:10;;;;;;;0.30;0.30;;;;;;;;;;5066927;28;20029;-70
2022/01/31 11:38:39;;;;;;;0.20;0.20;;;;;;;;;;5049532;28;20067;-69
2022/01/31 11:41:05;;;;;;;0.20;0.20;;;;;;;;;;5068382;28;20048;-69
2022/01/31 11:43:31;;;;;;;0.20;0.20;;;;;;;;;;5050590;28;20067;-71
2022/01/31 11:45:59;;;;;;;0.30;0.30;;;;;;;;;;5068018;28;20510;-70
2022/01/31 11:48:26;;;;;;;0.20;0.20;;;;;;;;;;5070067;28;20387;-71
2022/01/31 11:51:01;;;;;;;0.25;0.25;;;;;;;;;;5069806;28;20044;-70
2022/01/31 11:53:27;;;;;;;0.20;0.20;;;;;;;;;;5051996;28;20426;-70
2022/01/31 11:55:53;;;;;;;1.83;1.73;;;;;;;;;;5066374;28;20562;-71
2022/01/31 11:58:18;;;;;;;0.20;0.20;;;;;;;;;;5068891;28;20103;-71
2022/01/31 12:00:46;;;;;;;0.65;0.50;;;;;;;;;;5069634;28;20039;-70
2022/01/31 12:03:16;;;;;;;3.88;2.45;;;;;;;;;;5069318;28;20036;-69
2022/01/31 12:05:43;;;;;;;4.27;4.00;;;;;;;;;;5069881;28;20033;-71
2022/01/31 12:08:20;;;;;;;0.20;0.20;;;;;;;;;;5069198;28;21142;-71
2022/01/31 12:11:02;;;;;;;0.20;0.20;;;;;;;;;;5069454;28;20094;-70
2022/01/31 12:13:49;;;;;;;1.75;1.65;;;;;;;;;;5069815;28;20040;-71
2022/01/31 12:16:51;;;;;;;0.28;0.28;;;;;;;;;;5068241;28;20037;-69
2022/01/31 12:19:34;;;;;;;1.30;1.30;;;;;;;;;;5069966;28;20064;-71
2022/01/31 12:22:01;;;;;;;0.25;0.25;;;;;;;;;;5069333;28;20577;-69
2022/01/31 12:24:30;;;;;;;0.30;0.30;;;;;;;;;;5069468;28;20392;-70
2022/01/31 12:26:56;;;;;;;;;;;;;;;;;;5069797;28;20196;-70
2022/01/31 12:29:25;;;;;;;1.13;1.07;;;;;;;;;;5069662;28;20295;-70
2022/01/31 12:31:55;;;;;;;0.93;0.93;;;;;;;;;;5068639;28;20262;-70
2022/01/31 12:34:21;;;;;;;9.55;2.92;;;;;;;;;;5068901;28;20111;-70
2022/01/31 12:36:47;;;;;;;1.45;1.35;;;;;;;;;;5068028;28;20070;-71
2022/01/31 12:39:28;;;;;;;0.20;0.20;;;;;;;;;;5068988;28;20038;-71
2022/01/31 12:42:01;;;;;;;0.20;0.20;;;;;;;;;;5069396;28;20047;-69
2022/01/31 12:44:29;;;;;;;0.20;0.20;;;;;;;;;;5051265;28;20044;-70
2022/01/31 12:47:07;;;;;;;0.20;0.20;;;;;;;;;;5050981;28;20378;-71
2022/01/31 12:49:32;;;;;;;0.20;0.20;;;;;;;;;;5069100;28;20089;-72
2022/01/31 12:52:00;;;;;;;0.30;0.30;;;;;;;;;;5069427;28;20029;-69
2022/01/31 12:54:26;;;;;;;0.73;0.73;;;;;;;;;;5068792;28;20392;-72
2022/01/31 12:56:52;;;;;;;0.20;0.20;;;;;;;;;;5050688;28;20037;-70
2022/01/31 12:59:18;;;;;;;0.63;0.60;;;;;;;;;;5069121;28;20064;-70
2022/01/31 13:01:50;;;;;;;1.08;0.40;;;;;;;;;;5068867;28;20052;-70
2022/01/31 13:04:19;;;;;;;0.50;0.50;;;;;;;;;;5068771;28;20035;-67
2022/01/31 13:06:45;;;;;;;0.55;0.55;;;;;;;;;;5050695;28;20029;-70
2022/01/31 13:09:12;;;;;;;0.20;0.20;;;;;;;;;;5068817;28;20043;-70
2022/01/31 13:11:39;;;;;;;2.08;1.75;;;;;;;;;;5069222;28;20082;-70
2022/01/31 13:14:09;;;;;;;0.28;0.28;;;;;;;;;;5068508;28;20035;-69
2022/01/31 13:16:38;;;;;;;1.42;1.33;;;;;;;;;;5068677;28;20032;-70
2022/01/31 13:19:20;;;;;;;1.50;1.20;;;;;;;;;;5050661;28;20036;-70
2022/01/31 13:21:47;;;;;;;0.20;0.20;;;;;;;;;;5068460;28;20063;-70
2022/01/31 13:24:12;;;;;;;0.20;0.20;;;;;;;;;;5068182;28;20037;-71
2022/01/31 13:26:47;;;;;;;0.20;0.20;;;;;;;;;;5068265;28;20043;-67
2022/01/31 13:29:25;;;;;;;0.90;0.63;;;;;;;;;;5068925;28;20880;-70
2022/01/31 13:31:50;;;;;;;0.22;0.22;;;;;;;;;;5069009;28;20485;-70
2022/01/31 13:34:31;;;;;;;0.20;0.20;;;;;;;;;;5068530;28;20025;-68
2022/01/31 13:36:56;;;;;;;0.20;0.20;;;;;;;;;;5067881;28;20043;-67
2022/01/31 13:39:23;;;;;;;0.30;0.30;;;;;;;;;;5050370;28;20029;-70
2022/01/31 13:41:48;;;;;;;0.68;0.68;;;;;;;;;;5065126;28;20120;-72
2022/01/31 13:44:13;;;;;;;0.25;0.25;;;;;;;;;;5069716;28;20175;-71
2022/01/31 13:46:48;;;;;;;0.20;0.20;;;;;;;;;;5071155;28;20036;-71
2022/01/31 13:49:29;;;;;;;0.20;0.20;;;;;;;;;;5072068;28;20389;-71
2022/01/31 13:51:54;;;;;;;0.20;0.20;;;;;;;;;;5071406;28;20040;-72
2022/01/31 13:54:21;;;;;;;0.20;0.20;;;;;;;;;;5053556;28;20086;-72
2022/01/31 13:56:55;;;;;;;0.30;0.30;;;;;;;;;;5069669;28;20032;-71
2022/01/31 13:59:20;;;;;;;0.63;0.63;;;;;;;;;;5069578;28;20083;-71
2022/01/31 14:01:46;;;;;;;0.55;0.55;;;;;;;;;;5068299;28;20028;-72
2022/01/31 14:04:14;;;;;;;0.20;0.20;;;;;;;;;;5069401;28;20040;-71
2022/01/31 14:06:40;;;;;;;0.75;0.70;;;;;;;;;;5067113;28;20095;-71
2022/01/31 14:09:07;;;;;;;0.30;0.30;;;;;;;;;;5069258;28;20131;-71
2022/01/31 14:11:37;;;;;;;0.20;0.20;;;;;;;;;;5069902;28;20048;-73
2022/01/31 14:14:03;;;;;;;0.20;0.20;;;;;;;;;;5069876;28;20105;-72
2022/01/31 14:16:30;;;;;;;0.20;0.20;;;;;;;;;;5069485;28;20028;-70
2022/01/31 14:18:59;;;;;;;0.57;0.57;;;;;;;;;;5067535;28;20033;-72
2022/01/31 14:21:26;;;;;;;0.20;0.20;;;;;;;;;;5068734;28;20039;-71
2022/01/31 14:23:54;;;;;;;0.20;0.20;;;;;;;;;;5051194;28;20039;-70
2022/01/31 14:26:21;;;;;;;0.20;0.20;;;;;;;;;;5068626;28;20040;-71
2022/01/31 14:28:49;;;;;;;0.20;0.20;;;;;;;;;;5050946;28;20094;-68
2022/01/31 14:31:15;;;;;;;0.25;0.25;;;;;;;;;;5069302;28;20041;-71
2022/01/31 14:33:45;;;;;;;0.20;0.20;;;;;;;;;;5069093;28;20089;-70
2022/01/31 14:36:12;;;;;;;1.10;1.10;;;;;;;;;;5068290;28;20157;-68
2022/01/31 14:38:45;;;;;;;0.20;0.20;;;;;;;;;;5069019;28;20032;-72
2022/01/31 14:49:07;;;;;;;0.68;0.68;;;;;;;;;;5067566;28;20103;-71
2022/01/31 14:51:34;;;;;;;0.20;0.20;;;;;;;;;;5068176;28;20028;-71
2022/01/31 14:54:00;;;;;;;0.25;0.25;;;;;;;;;;5070251;28;20117;-71
2022/01/31 14:56:26;;;;;;;0.20;0.20;;;;;;;;;;5069263;28;20522;-67
2022/01/31 14:58:52;;;;;;;0.20;0.20;;;;;;;;;;5052281;28;20036;-71
2022/01/31 15:01:18;;;;;;;0.20;0.20;;;;;;;;;;5057489;28;20029;-72
2022/01/31 15:03:43;;;;;;;0.20;0.20;;;;;;;;;;5070557;28;20478;-71
2022/01/31 15:06:08;;;;;;;0.20;0.20;;;;;;;;;;5070137;28;20077;-73
2022/01/31 15:08:34;;;;;;;0.20;0.20;;;;;;;;;;5068659;28;20040;-72
2022/01/31 15:11:00;;;;;;;0.20;0.20;;;;;;;;;;5068280;28;20112;-72
2022/01/31 15:13:26;;;;;;;0.20;0.20;;;;;;;;;;5067139;28;20098;-72
2022/01/31 15:15:54;;;;;;;0.30;0.30;;;;;;;;;;5068180;28;20451;-72
2022/01/31 15:18:20;;;;;;;0.20;0.20;;;;;;;;;;5065766;28;20029;-72
2022/01/31 15:20:45;;;;;;;1.85;1.75;;;;;;;;;;5067685;28;20112;-71
2022/01/31 15:23:12;;;;;;;0.30;0.30;;;;;;;;;;5068929;28;20051;-73